createdAt,value
2022-09-01T00:00:28.947Z,0.00
2022-09-01T00:01:28.985Z,0.00
2022-09-01T00:02:29.025Z,0.00
2022-09-01T00:03:31.948Z,0.00
2022-09-01T00:04:28.987Z,0.00
2022-09-01T00:05:28.930Z,0.00
2022-09-01T00:06:28.887Z,0.00
2022-09-01T00:07:28.881Z,0.00
2022-09-01T00:08:28.862Z,0.00
2022-09-01T00:09:28.860Z,0.00
2022-09-01T00:10:28.841Z,0.00
2022-09-01T00:11:28.829Z,0.00
2022-09-01T00:12:28.829Z,0.00
2022-09-01T00:13:28.809Z,0.00
2022-09-01T00:14:30.282Z,0.00
2022-09-01T00:15:28.815Z,0.00
2022-09-01T00:16:28.814Z,0.00
2022-09-01T00:17:28.760Z,0.00
2022-09-01T00:18:31.760Z,0.00
2022-09-01T00:19:28.761Z,0.00
2022-09-01T00:20:28.723Z,0.00
2022-09-01T00:21:28.722Z,0.00
2022-09-01T00:22:28.715Z,0.00
2022-09-01T00:23:28.694Z,0.00
2022-09-01T00:24:28.693Z,0.00
2022-09-01T00:25:28.686Z,0.00
2022-09-01T00:26:28.676Z,0.00
2022-09-01T00:27:30.942Z,0.00
2022-09-01T00:28:29.275Z,0.00
2022-09-01T00:29:28.636Z,0.00
2022-09-01T00:30:28.625Z,0.00
2022-09-01T00:31:28.638Z,0.00
2022-09-01T00:32:28.643Z,0.00
2022-09-01T00:33:31.596Z,0.00
2022-09-01T00:34:28.604Z,0.00
2022-09-01T00:35:28.576Z,0.00
2022-09-01T00:36:28.591Z,0.00
2022-09-01T00:37:28.559Z,0.00
2022-09-01T00:38:28.569Z,0.00
2022-09-01T00:39:28.552Z,0.00
2022-09-01T00:40:28.591Z,0.00
2022-09-01T00:41:28.541Z,0.00
2022-09-01T00:42:28.492Z,0.00
2022-09-01T00:43:28.488Z,0.00
2022-09-01T00:44:31.125Z,0.00
2022-09-01T00:45:28.490Z,0.00
2022-09-01T00:46:29.063Z,0.00
2022-09-01T00:47:28.449Z,0.00
2022-09-01T00:48:31.435Z,0.00
2022-09-01T00:49:28.439Z,0.00
2022-09-01T00:50:28.411Z,0.00
2022-09-01T00:51:28.510Z,0.00
2022-09-01T00:52:28.401Z,0.00
2022-09-01T00:53:28.410Z,0.00
2022-09-01T00:54:28.379Z,0.00
2022-09-01T00:55:28.364Z,0.00
2022-09-01T00:56:28.354Z,0.00
2022-09-01T00:57:28.336Z,0.00
2022-09-01T00:58:28.336Z,0.00
2022-09-01T00:59:28.318Z,0.00
2022-09-01T01:00:28.310Z,0.00
2022-09-01T01:01:28.334Z,0.00
2022-09-01T01:02:28.399Z,0.00
2022-09-01T01:03:31.279Z,0.00
2022-09-01T01:04:28.276Z,0.00
2022-09-01T01:05:28.259Z,0.00
2022-09-01T01:06:29.753Z,0.00
2022-09-01T01:07:28.216Z,0.00
2022-09-01T01:08:28.217Z,0.00
2022-09-01T01:09:28.209Z,0.00
2022-09-01T01:10:28.206Z,0.00
2022-09-01T01:11:28.196Z,0.00
2022-09-01T01:12:28.179Z,0.00
2022-09-01T01:13:28.219Z,0.00
2022-09-01T01:14:28.160Z,0.00
2022-09-01T01:15:28.149Z,0.00
2022-09-01T01:16:28.181Z,0.00
2022-09-01T01:17:28.125Z,0.00
2022-09-01T01:18:31.151Z,0.00
2022-09-01T01:19:28.119Z,0.00
2022-09-01T01:20:28.102Z,0.00
2022-09-01T01:21:28.081Z,0.00
2022-09-01T01:22:28.091Z,0.00
2022-09-01T01:23:28.060Z,0.00
2022-09-01T01:24:28.054Z,0.00
2022-09-01T01:25:28.043Z,0.00
2022-09-01T01:26:28.030Z,0.00
2022-09-01T01:27:28.021Z,0.00
2022-09-01T01:28:28.003Z,0.00
2022-09-01T01:29:28.082Z,0.00
2022-09-01T01:30:28.021Z,0.00
2022-09-01T01:31:27.973Z,0.00
2022-09-01T01:32:27.961Z,0.00
2022-09-01T01:33:30.991Z,0.00
2022-09-01T01:34:27.955Z,0.00
2022-09-01T01:35:27.934Z,0.00
2022-09-01T01:36:27.924Z,0.00
2022-09-01T01:37:27.906Z,0.00
2022-09-01T01:38:27.940Z,0.00
2022-09-01T01:39:27.891Z,0.00
2022-09-01T01:40:27.910Z,0.00
2022-09-01T01:41:27.865Z,0.00
2022-09-01T01:42:27.857Z,0.00
2022-09-01T01:43:27.894Z,0.00
2022-09-01T01:44:27.851Z,0.00
2022-09-01T01:45:27.826Z,0.00
2022-09-01T01:46:27.918Z,0.00
2022-09-01T01:48:49.762Z,0.00
2022-09-01T01:49:49.704Z,0.00
2022-09-01T01:50:49.698Z,0.00
2022-09-01T01:51:49.692Z,0.00
2022-09-01T01:52:49.682Z,0.00
2022-09-01T01:53:49.702Z,0.00
2022-09-01T01:54:49.652Z,0.00
2022-09-01T01:55:49.704Z,0.00
2022-09-01T01:56:49.653Z,0.00
2022-09-01T01:57:49.621Z,0.00
2022-09-01T01:58:49.735Z,0.00
2022-09-01T01:59:49.604Z,0.00
2022-09-01T02:00:49.595Z,0.00
2022-09-01T02:01:52.635Z,0.00
2022-09-01T02:02:49.637Z,0.00
2022-09-01T02:03:49.565Z,0.00
2022-09-01T02:04:49.558Z,0.00
2022-09-01T02:05:49.543Z,0.00
2022-09-01T02:06:49.526Z,0.00
2022-09-01T02:07:49.532Z,0.00
2022-09-01T02:08:49.564Z,0.00
2022-09-01T02:09:49.524Z,0.00
2022-09-01T02:10:49.502Z,0.00
2022-09-01T02:11:49.476Z,0.00
2022-09-01T02:12:49.461Z,0.00
2022-09-01T02:13:49.465Z,0.00
2022-09-01T02:14:49.443Z,0.00
2022-09-01T02:15:49.436Z,0.00
2022-09-01T02:16:52.473Z,0.00
2022-09-01T02:17:49.429Z,0.00
2022-09-01T02:18:49.401Z,0.00
2022-09-01T02:19:49.396Z,0.00
2022-09-01T02:20:49.529Z,0.00
2022-09-01T02:21:49.379Z,0.00
2022-09-01T02:22:49.360Z,0.00
2022-09-01T02:23:49.355Z,0.00
2022-09-01T02:24:49.337Z,0.00
2022-09-01T02:26:14.525Z,0.00
2022-09-01T02:26:50.319Z,0.00
2022-09-01T02:27:49.314Z,0.00
2022-09-01T02:28:54.683Z,0.00
2022-09-01T02:29:49.286Z,0.00
2022-09-01T02:30:49.372Z,0.00
2022-09-01T02:31:52.264Z,0.00
2022-09-01T02:32:49.261Z,0.00
2022-09-01T02:33:49.253Z,0.00
2022-09-01T02:34:49.229Z,0.00
2022-09-01T02:35:49.255Z,0.00
2022-09-01T02:36:49.217Z,0.00
2022-09-01T02:37:49.211Z,0.00
2022-09-01T02:38:53.437Z,0.00
2022-09-01T02:39:49.181Z,0.00
2022-09-01T02:40:49.164Z,0.00
2022-09-01T02:41:49.155Z,0.00
2022-09-01T02:42:49.149Z,0.00
2022-09-01T02:43:49.169Z,0.00
2022-09-01T02:44:49.136Z,0.00
2022-09-01T02:45:49.120Z,0.00
2022-09-01T02:46:52.096Z,0.00
2022-09-01T02:47:49.110Z,0.00
2022-09-01T02:48:49.120Z,0.00
2022-09-01T02:49:49.068Z,0.00
2022-09-01T02:50:49.048Z,0.00
2022-09-01T02:51:49.048Z,0.00
2022-09-01T02:52:49.037Z,0.00
2022-09-01T02:53:49.032Z,0.00
2022-09-01T02:54:49.018Z,0.00
2022-09-01T02:55:49.011Z,0.00
2022-09-01T02:56:48.996Z,0.00
2022-09-01T02:57:48.989Z,0.00
2022-09-01T02:58:48.970Z,0.00
2022-09-01T02:59:49.071Z,0.00
2022-09-01T03:00:48.989Z,0.00
2022-09-01T03:01:51.932Z,0.00
2022-09-01T03:02:48.948Z,0.00
2022-09-01T03:03:48.921Z,0.00
2022-09-01T03:04:48.979Z,0.00
2022-09-01T03:05:48.901Z,0.00
2022-09-01T03:06:48.891Z,0.00
2022-09-01T03:07:48.877Z,0.00
2022-09-01T03:08:48.874Z,0.00
2022-09-01T03:09:48.885Z,0.00
2022-09-01T03:10:48.842Z,0.00
2022-09-01T03:11:48.838Z,0.00
2022-09-01T03:12:48.825Z,0.00
2022-09-01T03:13:48.810Z,0.00
2022-09-01T03:14:48.803Z,0.00
2022-09-01T03:15:48.796Z,0.00
2022-09-01T03:16:51.866Z,0.00
2022-09-01T03:17:48.784Z,0.00
2022-09-01T03:18:48.756Z,0.00
2022-09-01T03:19:48.744Z,0.00
2022-09-01T03:20:48.928Z,0.00
2022-09-01T03:21:48.774Z,0.00
2022-09-01T03:22:48.740Z,0.00
2022-09-01T03:23:48.707Z,0.00
2022-09-01T03:24:48.698Z,0.00
2022-09-01T03:25:48.687Z,0.00
2022-09-01T03:26:50.013Z,0.00
2022-09-01T03:27:48.670Z,0.00
2022-09-01T03:28:48.650Z,0.00
2022-09-01T03:29:48.636Z,0.00
2022-09-01T03:30:48.629Z,0.00
2022-09-01T03:31:51.806Z,0.00
2022-09-01T03:32:48.628Z,0.00
2022-09-01T03:33:48.609Z,0.00
2022-09-01T03:34:48.588Z,0.00
2022-09-01T03:35:48.575Z,0.00
2022-09-01T03:36:48.561Z,0.00
2022-09-01T03:37:48.551Z,0.00
2022-09-01T03:38:48.553Z,0.00
2022-09-01T03:39:48.531Z,0.00
2022-09-01T03:40:48.644Z,0.00
2022-09-01T03:41:48.515Z,0.00
2022-09-01T03:42:48.541Z,0.00
2022-09-01T03:43:48.691Z,0.00
2022-09-01T03:44:48.480Z,0.00
2022-09-01T03:45:48.514Z,0.00
2022-09-01T03:46:51.454Z,0.00
2022-09-01T03:47:48.462Z,0.00
2022-09-01T03:48:48.442Z,0.00
2022-09-01T03:49:48.431Z,0.00
2022-09-01T03:50:48.422Z,0.00
2022-09-01T03:51:48.405Z,0.00
2022-09-01T03:52:48.395Z,0.00
2022-09-01T03:53:48.482Z,0.00
2022-09-01T03:54:48.369Z,0.00
2022-09-01T03:55:48.365Z,0.00
2022-09-01T03:56:48.356Z,0.00
2022-09-01T03:57:48.344Z,0.00
2022-09-01T03:58:48.439Z,0.00
2022-09-01T03:59:48.326Z,0.00
2022-09-01T04:00:49.223Z,0.00
2022-09-01T04:01:51.361Z,0.00
2022-09-01T04:02:48.307Z,0.00
2022-09-01T04:03:48.285Z,0.00
2022-09-01T04:04:48.268Z,0.00
2022-09-01T04:05:48.272Z,0.00
2022-09-01T04:06:48.247Z,0.00
2022-09-01T04:07:48.231Z,0.00
2022-09-01T04:08:48.237Z,0.00
2022-09-01T04:09:48.250Z,0.00
2022-09-01T04:10:48.208Z,0.00
2022-09-01T04:11:48.191Z,0.00
2022-09-01T04:12:48.180Z,0.00
2022-09-01T04:13:48.179Z,0.00
2022-09-01T04:14:48.118Z,0.00
2022-09-01T04:15:48.150Z,0.00
2022-09-01T04:16:51.250Z,0.00
2022-09-01T04:17:48.160Z,0.00
2022-09-01T04:18:48.124Z,0.00
2022-09-01T04:19:48.111Z,0.00
2022-09-01T04:20:48.054Z,0.00
2022-09-01T04:21:48.042Z,0.00
2022-09-01T04:22:48.071Z,0.00
2022-09-01T04:23:48.013Z,0.00
2022-09-01T04:24:48.003Z,0.00
2022-09-01T04:25:47.986Z,0.00
2022-09-01T04:26:47.988Z,0.00
2022-09-01T04:27:48.023Z,0.00
2022-09-01T04:28:47.967Z,0.00
2022-09-01T04:29:47.945Z,0.00
2022-09-01T04:30:47.943Z,0.00
2022-09-01T04:31:50.953Z,0.00
2022-09-01T04:32:47.976Z,0.00
2022-09-01T04:33:47.907Z,0.00
2022-09-01T04:34:47.895Z,0.00
2022-09-01T04:35:47.887Z,0.00
2022-09-01T04:36:48.276Z,0.00
2022-09-01T04:37:47.863Z,0.00
2022-09-01T04:38:47.857Z,0.00
2022-09-01T04:39:50.354Z,5.62
2022-09-01T04:40:47.946Z,5.62
2022-09-01T04:41:47.839Z,5.62
2022-09-01T04:42:47.818Z,5.62
2022-09-01T04:43:47.808Z,5.62
2022-09-01T04:44:47.809Z,5.62
2022-09-01T04:45:47.829Z,5.62
2022-09-01T04:46:50.948Z,5.62
2022-09-01T04:47:47.782Z,11.25
2022-09-01T04:48:47.761Z,11.25
2022-09-01T04:49:47.749Z,11.25
2022-09-01T04:50:47.790Z,11.25
2022-09-01T04:51:52.550Z,11.25
2022-09-01T04:52:47.717Z,11.25
2022-09-01T04:53:47.702Z,16.88
2022-09-01T04:54:47.693Z,16.88
2022-09-01T04:55:49.744Z,16.88
2022-09-01T04:56:47.675Z,16.88
2022-09-01T04:57:47.677Z,16.88
2022-09-01T04:58:47.654Z,16.88
2022-09-01T04:59:47.645Z,16.88
2022-09-01T05:00:47.684Z,16.88
2022-09-01T05:01:50.908Z,22.50
2022-09-01T05:02:47.625Z,22.50
2022-09-01T05:03:47.596Z,22.50
2022-09-01T05:04:47.583Z,28.12
2022-09-01T05:05:47.622Z,28.12
2022-09-01T05:06:47.578Z,33.75
2022-09-01T05:07:47.555Z,33.75
2022-09-01T05:08:47.557Z,33.75
2022-09-01T05:09:47.536Z,33.75
2022-09-01T05:10:47.528Z,33.75
2022-09-01T05:11:47.524Z,33.75
2022-09-01T05:12:47.515Z,39.38
2022-09-01T05:13:47.505Z,39.38
2022-09-01T05:14:47.487Z,39.38
2022-09-01T05:15:47.476Z,39.38
2022-09-01T05:16:50.548Z,45.00
2022-09-01T05:17:47.473Z,45.00
2022-09-01T05:18:47.450Z,50.62
2022-09-01T05:19:47.429Z,50.62
2022-09-01T05:20:47.423Z,50.62
2022-09-01T05:21:47.560Z,56.25
2022-09-01T05:22:47.402Z,56.25
2022-09-01T05:23:47.389Z,61.88
2022-09-01T05:24:47.390Z,61.88
2022-09-01T05:25:47.363Z,67.50
2022-09-01T05:26:47.515Z,73.12
2022-09-01T05:27:47.353Z,73.12
2022-09-01T05:28:47.346Z,78.75
2022-09-01T05:29:47.323Z,78.75
2022-09-01T05:30:47.326Z,78.75
2022-09-01T05:31:50.652Z,78.75
2022-09-01T05:32:47.315Z,78.75
2022-09-01T05:33:47.327Z,78.75
2022-09-01T05:34:47.290Z,84.38
2022-09-01T05:35:47.278Z,90.00
2022-09-01T05:36:47.264Z,95.62
2022-09-01T05:37:47.255Z,101.25
2022-09-01T05:38:47.231Z,106.88
2022-09-01T05:39:47.231Z,106.88
2022-09-01T05:40:47.280Z,106.88
2022-09-01T05:41:47.211Z,106.88
2022-09-01T05:42:47.299Z,112.50
2022-09-01T05:43:47.179Z,118.12
2022-09-01T05:44:47.180Z,118.12
2022-09-01T05:46:05.653Z,123.75
2022-09-01T05:46:51.225Z,123.75
2022-09-01T05:47:47.163Z,129.38
2022-09-01T05:48:47.139Z,129.38
2022-09-01T05:49:47.106Z,135.00
2022-09-01T05:50:47.107Z,135.00
2022-09-01T05:51:50.392Z,135.00
2022-09-01T05:52:47.089Z,135.00
2022-09-01T05:53:47.100Z,135.00
2022-09-01T05:54:47.074Z,140.62
2022-09-01T05:55:47.044Z,135.00
2022-09-01T05:56:47.040Z,135.00
2022-09-01T05:57:47.041Z,129.38
2022-09-01T05:59:48.013Z,135.00
2022-09-01T06:00:47.001Z,140.62
2022-09-01T06:01:50.691Z,140.62
2022-09-01T06:02:47.197Z,140.62
2022-09-01T06:03:47.012Z,135.00
2022-09-01T06:04:46.961Z,129.38
2022-09-01T06:05:46.942Z,129.38
2022-09-01T06:07:04.135Z,129.38
2022-09-01T06:07:47.922Z,129.38
2022-09-01T06:08:46.943Z,129.38
2022-09-01T06:09:46.903Z,135.00
2022-09-01T06:10:46.897Z,135.00
2022-09-01T06:11:46.886Z,123.75
2022-09-01T06:12:48.845Z,112.50
2022-09-01T06:13:46.878Z,123.75
2022-09-01T06:14:46.960Z,135.00
2022-09-01T06:15:46.849Z,157.50
2022-09-01T06:16:49.826Z,174.38
2022-09-01T06:17:46.838Z,180.00
2022-09-01T06:18:46.858Z,174.38
2022-09-01T06:19:46.833Z,168.75
2022-09-01T06:20:46.797Z,168.75
2022-09-01T06:21:46.780Z,180.00
2022-09-01T06:22:46.888Z,185.62
2022-09-01T06:23:46.767Z,191.25
2022-09-01T06:24:53.326Z,208.12
2022-09-01T06:25:47.742Z,202.50
2022-09-01T06:26:46.729Z,185.62
2022-09-01T06:27:46.762Z,185.62
2022-09-01T06:28:46.714Z,185.62
2022-09-01T06:29:46.690Z,191.25
2022-09-01T06:30:46.734Z,185.62
2022-09-01T06:31:49.710Z,191.25
2022-09-01T06:32:46.682Z,191.25
2022-09-01T06:33:46.660Z,191.25
2022-09-01T06:34:46.660Z,196.88
2022-09-01T06:35:46.632Z,196.88
2022-09-01T06:36:46.634Z,191.25
2022-09-01T06:37:46.656Z,185.62
2022-09-01T06:38:46.593Z,185.62
2022-09-01T06:39:46.594Z,185.62
2022-09-01T06:40:46.616Z,185.62
2022-09-01T06:41:46.624Z,185.62
2022-09-01T06:42:46.554Z,185.62
2022-09-01T06:43:46.575Z,185.62
2022-09-01T06:44:46.538Z,202.50
2022-09-01T06:45:46.527Z,213.75
2022-09-01T06:46:49.601Z,236.25
2022-09-01T06:47:46.520Z,253.12
2022-09-01T06:48:46.510Z,253.12
2022-09-01T06:49:46.488Z,258.75
2022-09-01T06:51:47.516Z,275.62
2022-09-01T06:53:47.636Z,264.38
2022-09-01T06:54:46.437Z,258.75
2022-09-01T06:55:46.439Z,258.75
2022-09-01T06:56:51.320Z,258.75
2022-09-01T06:58:47.390Z,264.38
2022-09-01T06:59:46.388Z,264.38
2022-09-01T07:00:46.380Z,258.75
2022-09-01T07:01:50.002Z,253.12
2022-09-01T07:02:47.459Z,247.50
2022-09-01T07:03:46.342Z,253.12
2022-09-01T07:04:46.328Z,258.75
2022-09-01T07:06:02.521Z,241.88
2022-09-01T07:07:53.937Z,241.88
2022-09-01T07:07:54.363Z,247.50
2022-09-01T07:10:05.801Z,264.38
2022-09-01T07:16:53.338Z,275.62
2022-09-01T07:17:47.216Z,275.62
2022-09-01T07:18:58.377Z,270.00
2022-09-01T07:19:49.202Z,270.00
2022-09-01T07:24:07.840Z,298.12
2022-09-01T07:24:47.127Z,298.12
2022-09-01T07:26:02.345Z,298.12
2022-09-01T07:26:47.596Z,303.75
2022-09-01T07:27:46.095Z,309.38
2022-09-01T07:28:47.809Z,309.38
2022-09-01T07:29:47.067Z,309.38
2022-09-01T07:30:48.562Z,309.38
2022-09-01T07:32:47.513Z,303.75
2022-09-01T07:33:48.021Z,309.38
2022-09-01T07:34:47.837Z,326.25
2022-09-01T07:38:49.413Z,393.75
2022-09-01T07:39:48.578Z,405.00
2022-09-01T07:43:46.923Z,444.38
2022-09-01T07:44:45.922Z,444.38
2022-09-01T07:45:58.309Z,444.38
2022-09-01T07:47:19.562Z,444.38
2022-09-01T07:47:54.392Z,455.62
2022-09-01T07:49:02.834Z,455.62
2022-09-01T07:50:24.126Z,444.38
2022-09-01T07:51:46.885Z,416.25
2022-09-01T07:52:45.848Z,399.38
2022-09-01T07:53:45.827Z,393.75
2022-09-01T07:54:45.818Z,393.75
2022-09-01T07:55:45.811Z,393.75
2022-09-01T07:56:45.792Z,393.75
2022-09-01T07:57:45.810Z,393.75
2022-09-01T07:58:45.776Z,393.75
2022-09-01T07:59:45.809Z,393.75
2022-09-01T08:00:45.754Z,393.75
2022-09-01T08:01:48.835Z,405.00
2022-09-01T08:02:45.777Z,410.62
2022-09-01T08:03:45.721Z,421.88
2022-09-01T08:04:45.770Z,450.00
2022-09-01T08:05:45.710Z,472.50
2022-09-01T08:06:45.692Z,500.62
2022-09-01T08:07:52.782Z,540.00
2022-09-01T08:08:45.671Z,573.75
2022-09-01T08:09:46.714Z,601.88
2022-09-01T08:10:45.839Z,607.50
2022-09-01T08:12:02.569Z,596.25
2022-09-01T08:12:46.759Z,585.00
2022-09-01T08:13:52.020Z,573.75
2022-09-01T08:14:45.613Z,568.12
2022-09-01T08:16:53.237Z,556.88
2022-09-01T08:17:52.676Z,551.25
2022-09-01T08:18:49.541Z,540.00
2022-09-01T08:19:45.592Z,528.75
2022-09-01T08:20:45.828Z,562.50
2022-09-01T08:21:45.534Z,624.38
2022-09-01T08:22:45.548Z,652.50
2022-09-01T08:23:45.519Z,652.50
2022-09-01T08:24:45.518Z,652.50
2022-09-01T08:25:45.495Z,669.38
2022-09-01T08:26:45.478Z,703.12
2022-09-01T08:27:45.467Z,714.38
2022-09-01T08:28:54.347Z,714.38
2022-09-01T08:29:45.449Z,708.75
2022-09-01T08:30:52.188Z,714.38
2022-09-01T08:31:48.470Z,742.50
2022-09-01T08:32:45.432Z,781.88
2022-09-01T08:33:45.417Z,838.12
2022-09-01T08:34:45.395Z,877.50
2022-09-01T08:35:45.401Z,900.00
2022-09-01T08:36:45.384Z,894.38
2022-09-01T08:37:45.361Z,894.38
2022-09-01T08:38:45.350Z,900.00
2022-09-01T08:39:45.361Z,871.88
2022-09-01T08:40:45.409Z,866.25
2022-09-01T08:41:47.514Z,894.38
2022-09-01T08:42:45.311Z,894.38
2022-09-01T08:43:45.310Z,900.00
2022-09-01T08:44:45.296Z,855.00
2022-09-01T08:45:45.283Z,815.62
2022-09-01T08:46:48.351Z,815.62
2022-09-01T08:48:15.270Z,826.88
2022-09-01T08:49:46.818Z,793.12
2022-09-01T08:50:45.234Z,787.50
2022-09-01T08:51:45.258Z,810.00
2022-09-01T08:52:45.221Z,877.50
2022-09-01T08:53:45.207Z,928.12
2022-09-01T08:54:45.547Z,967.50
2022-09-01T08:55:45.186Z,967.50
2022-09-01T08:56:45.171Z,967.50
2022-09-01T08:57:45.156Z,961.88
2022-09-01T08:58:45.282Z,939.38
2022-09-01T08:59:45.139Z,911.25
2022-09-01T09:00:45.966Z,894.38
2022-09-01T09:01:48.188Z,1001.25
2022-09-01T09:02:45.168Z,956.25
2022-09-01T09:03:45.088Z,905.62
2022-09-01T09:04:45.088Z,877.50
2022-09-01T09:05:45.071Z,871.88
2022-09-01T09:06:45.102Z,933.75
2022-09-01T09:07:45.044Z,978.75
2022-09-01T09:08:45.044Z,973.12
2022-09-01T09:09:51.134Z,933.75
2022-09-01T09:10:45.025Z,928.12
2022-09-01T09:11:45.067Z,916.88
2022-09-01T09:12:52.171Z,871.88
2022-09-01T09:13:44.991Z,843.75
2022-09-01T09:14:44.983Z,843.75
2022-09-01T09:15:45.023Z,821.25
2022-09-01T09:16:48.124Z,765.00
2022-09-01T09:17:44.987Z,736.88
2022-09-01T09:19:00.324Z,759.38
2022-09-01T09:19:45.025Z,871.88
2022-09-01T09:20:44.919Z,1276.88
2022-09-01T09:21:44.919Z,1507.50
2022-09-01T09:22:44.955Z,1676.25
2022-09-01T09:23:45.276Z,1417.50
2022-09-01T09:24:44.876Z,1310.62
2022-09-01T09:25:44.868Z,1282.50
2022-09-01T09:26:44.990Z,1265.62
2022-09-01T09:27:44.850Z,1209.38
2022-09-01T09:28:45.840Z,1158.75
2022-09-01T09:29:45.446Z,1136.25
2022-09-01T09:30:44.833Z,1074.38
2022-09-01T09:31:47.810Z,1006.88
2022-09-01T09:33:16.084Z,945.00
2022-09-01T09:33:51.674Z,894.38
2022-09-01T09:34:44.793Z,877.50
2022-09-01T09:35:44.766Z,900.00
2022-09-01T09:36:45.470Z,978.75
2022-09-01T09:37:44.747Z,1175.62
2022-09-01T09:38:44.779Z,1310.62
2022-09-01T09:39:44.753Z,1496.25
2022-09-01T09:41:10.431Z,1580.62
2022-09-01T09:41:45.727Z,1518.75
2022-09-01T09:42:44.692Z,1355.62
2022-09-01T09:43:45.419Z,1631.25
2022-09-01T09:44:44.722Z,3684.38
2022-09-01T09:45:44.716Z,3206.25
2022-09-01T09:46:47.753Z,1631.25
2022-09-01T09:47:45.275Z,1344.38
2022-09-01T09:48:44.632Z,1175.62
2022-09-01T09:49:48.776Z,1035.00
2022-09-01T09:50:44.610Z,939.38
2022-09-01T09:51:44.604Z,871.88
2022-09-01T09:52:44.586Z,866.25
2022-09-01T09:53:44.704Z,933.75
2022-09-01T09:54:44.570Z,1085.62
2022-09-01T09:55:44.618Z,1271.25
2022-09-01T09:56:44.570Z,1906.88
2022-09-01T09:57:44.540Z,1828.12
2022-09-01T09:58:44.522Z,1546.88
2022-09-01T09:59:58.877Z,1445.62
2022-09-01T10:00:44.525Z,1248.75
2022-09-01T10:01:47.534Z,1108.12
2022-09-01T10:02:44.510Z,978.75
2022-09-01T10:03:44.543Z,888.75
2022-09-01T10:04:44.513Z,860.62
2022-09-01T10:05:45.453Z,871.88
2022-09-01T10:06:44.463Z,922.50
2022-09-01T10:07:44.430Z,956.25
2022-09-01T10:08:44.420Z,956.25
2022-09-01T10:09:44.420Z,973.12
2022-09-01T10:10:44.402Z,1023.75
2022-09-01T10:11:45.385Z,1074.38
2022-09-01T10:12:45.850Z,1158.75
2022-09-01T10:13:44.368Z,1209.38
2022-09-01T10:14:53.411Z,1231.88
2022-09-01T10:15:44.345Z,1372.50
2022-09-01T10:16:47.893Z,1260.00
2022-09-01T10:17:44.464Z,1237.50
2022-09-01T10:18:44.315Z,1226.25
2022-09-01T10:19:44.311Z,1282.50
2022-09-01T10:20:44.332Z,1350.00
2022-09-01T10:21:44.296Z,1366.88
2022-09-01T10:22:44.767Z,1209.38
2022-09-01T10:23:44.922Z,1136.25
2022-09-01T10:24:45.859Z,1125.00
2022-09-01T10:25:44.522Z,1147.50
2022-09-01T10:26:44.255Z,1215.00
2022-09-01T10:27:44.300Z,1310.62
2022-09-01T10:28:50.005Z,1276.88
2022-09-01T10:29:47.731Z,1237.50
2022-09-01T10:30:45.251Z,1220.62
2022-09-01T10:31:47.180Z,1321.88
2022-09-01T10:32:50.686Z,1265.62
2022-09-01T10:33:44.167Z,1299.38
2022-09-01T10:34:44.150Z,1338.75
2022-09-01T10:35:44.151Z,1344.38
2022-09-01T10:36:47.049Z,1350.00
2022-09-01T10:37:44.121Z,1406.25
2022-09-01T10:38:46.875Z,4117.50
2022-09-01T10:39:45.104Z,3341.25
2022-09-01T10:40:44.613Z,1951.88
2022-09-01T10:41:44.085Z,2250.00
2022-09-01T10:42:45.266Z,2401.88
2022-09-01T10:43:44.055Z,3166.88
2022-09-01T10:44:44.040Z,1496.25
2022-09-01T10:45:44.082Z,1417.50
2022-09-01T10:46:50.839Z,1395.00
2022-09-01T10:47:44.128Z,1260.00
2022-09-01T10:48:55.442Z,1186.88
2022-09-01T10:49:46.506Z,1276.88
2022-09-01T10:50:43.986Z,1215.00
2022-09-01T10:51:55.198Z,1057.50
2022-09-01T10:52:44.135Z,995.62
2022-09-01T10:53:43.955Z,961.88
2022-09-01T10:54:51.803Z,978.75
2022-09-01T10:55:43.951Z,1051.88
2022-09-01T10:56:44.547Z,1164.38
2022-09-01T10:57:43.933Z,1366.88
2022-09-01T10:59:55.790Z,1423.12
2022-09-01T11:01:10.594Z,1293.75
2022-09-01T11:01:49.455Z,1102.50
2022-09-01T11:02:46.572Z,956.25
2022-09-01T11:03:50.700Z,871.88
2022-09-01T11:04:43.959Z,810.00
2022-09-01T11:05:43.835Z,781.88
2022-09-01T11:07:11.719Z,759.38
2022-09-01T11:08:01.507Z,753.75
2022-09-01T11:08:48.244Z,748.12
2022-09-01T11:09:43.802Z,753.75
2022-09-01T11:10:43.773Z,770.62
2022-09-01T11:11:43.762Z,787.50
2022-09-01T11:12:43.754Z,810.00
2022-09-01T11:13:49.020Z,843.75
2022-09-01T11:14:43.733Z,855.00
2022-09-01T11:15:45.021Z,838.12
2022-09-01T11:16:49.297Z,821.25
2022-09-01T11:17:43.809Z,810.00
2022-09-01T11:18:43.695Z,793.12
2022-09-01T11:19:44.437Z,793.12
2022-09-01T11:20:43.896Z,810.00
2022-09-01T11:21:43.665Z,838.12
2022-09-01T11:22:43.759Z,883.12
2022-09-01T11:23:43.659Z,928.12
2022-09-01T11:24:43.638Z,984.38
2022-09-01T11:25:44.617Z,1040.62
2022-09-01T11:26:44.649Z,1080.00
2022-09-01T11:27:43.616Z,1102.50
2022-09-01T11:28:43.609Z,1175.62
2022-09-01T11:29:43.596Z,1203.75
2022-09-01T11:30:43.579Z,1215.00
2022-09-01T11:31:46.622Z,1276.88
2022-09-01T11:32:46.838Z,1276.88
2022-09-01T11:33:43.542Z,1226.25
2022-09-01T11:34:43.536Z,1192.50
2022-09-01T11:35:43.562Z,1181.25
2022-09-01T11:36:43.513Z,1158.75
2022-09-01T11:37:43.512Z,1130.62
2022-09-01T11:38:43.490Z,1102.50
2022-09-01T11:39:43.481Z,1091.25
2022-09-01T11:40:43.494Z,1080.00
2022-09-01T11:41:43.460Z,1080.00
2022-09-01T11:42:46.631Z,1080.00
2022-09-01T11:43:43.444Z,1085.62
2022-09-01T11:44:43.439Z,1085.62
2022-09-01T11:45:43.430Z,1113.75
2022-09-01T11:46:46.411Z,1040.62
2022-09-01T11:47:43.418Z,1029.38
2022-09-01T11:48:43.403Z,1023.75
2022-09-01T11:49:43.387Z,1029.38
2022-09-01T11:50:43.399Z,1023.75
2022-09-01T11:51:43.365Z,1344.38
2022-09-01T11:52:43.346Z,3853.12
2022-09-01T11:53:43.328Z,4201.88
2022-09-01T11:54:43.333Z,2632.50
2022-09-01T11:55:43.345Z,1406.25
2022-09-01T11:56:43.299Z,1254.38
2022-09-01T11:57:43.301Z,1231.88
2022-09-01T11:58:43.288Z,1321.88
2022-09-01T11:59:43.288Z,2154.38
2022-09-01T12:00:43.360Z,1125.00
2022-09-01T12:01:46.267Z,1063.12
2022-09-01T12:02:43.360Z,1186.88
2022-09-01T12:03:43.396Z,3701.25
2022-09-01T12:04:43.223Z,2570.62
2022-09-01T12:05:43.329Z,1136.25
2022-09-01T12:06:43.212Z,1895.62
2022-09-01T12:07:43.195Z,1288.12
2022-09-01T12:08:43.183Z,2295.00
2022-09-01T12:09:43.179Z,1333.12
2022-09-01T12:10:43.168Z,1136.25
2022-09-01T12:11:43.155Z,3476.25
2022-09-01T12:12:43.151Z,3639.38
2022-09-01T12:13:43.136Z,3864.38
2022-09-01T12:15:04.349Z,3999.38
2022-09-01T12:16:06.972Z,4123.12
2022-09-01T12:16:47.149Z,4269.38
2022-09-01T12:17:43.108Z,4359.38
2022-09-01T12:18:43.080Z,4376.25
2022-09-01T12:19:43.069Z,4207.50
2022-09-01T12:20:43.078Z,4376.25
2022-09-01T12:21:43.157Z,1805.62
2022-09-01T12:22:43.032Z,4201.88
2022-09-01T12:23:43.023Z,4044.38
2022-09-01T12:24:43.018Z,3915.00
2022-09-01T12:25:43.001Z,3931.88
2022-09-01T12:26:42.999Z,3785.62
2022-09-01T12:27:42.980Z,3943.12
2022-09-01T12:28:42.986Z,1479.38
2022-09-01T12:29:42.970Z,1530.00
2022-09-01T12:30:42.962Z,1451.25
2022-09-01T12:31:45.994Z,1501.88
2022-09-01T12:32:42.955Z,1755.00
2022-09-01T12:33:42.917Z,1428.75
2022-09-01T12:34:42.923Z,1468.12
2022-09-01T12:35:42.908Z,1670.62
2022-09-01T12:36:42.920Z,4005.00
2022-09-01T12:37:42.915Z,3960.00
2022-09-01T12:38:42.875Z,3988.12
2022-09-01T12:39:42.867Z,3965.62
2022-09-01T12:40:42.869Z,3931.88
2022-09-01T12:41:42.845Z,4106.25
2022-09-01T12:42:44.718Z,1929.38
2022-09-01T12:43:42.827Z,2581.88
2022-09-01T12:44:42.805Z,2182.50
2022-09-01T12:45:42.901Z,3960.00
2022-09-01T12:46:46.653Z,3926.25
2022-09-01T12:47:42.789Z,1794.38
2022-09-01T12:48:42.887Z,1440.00
2022-09-01T12:49:50.003Z,1681.88
2022-09-01T12:50:43.629Z,1355.62
2022-09-01T12:51:43.830Z,1153.12
2022-09-01T12:52:42.771Z,1102.50
2022-09-01T12:53:42.794Z,1153.12
2022-09-01T12:54:42.709Z,1310.62
2022-09-01T12:55:49.981Z,1355.62
2022-09-01T12:56:42.681Z,3470.62
2022-09-01T12:57:42.682Z,3110.62
2022-09-01T12:58:42.677Z,1372.50
2022-09-01T12:59:42.658Z,3785.62
2022-09-01T13:00:42.710Z,1113.75
2022-09-01T13:01:45.786Z,995.62
2022-09-01T13:02:42.706Z,956.25
2022-09-01T13:03:42.616Z,928.12
2022-09-01T13:04:42.645Z,995.62
2022-09-01T13:05:42.943Z,1051.88
2022-09-01T13:06:42.583Z,1282.50
2022-09-01T13:07:42.566Z,3476.25
2022-09-01T13:08:42.570Z,3403.12